Accueil
METAR-TAF:

METAR-TAF

Aéroports :

Meiringen, Suisse

latitude: 46-44-25N, longitude: 8-06-36E, altitude: 577 m

Observation

Le bulletin a été fait il y a 17 minutes, à 14:20 UTC
Vent 3 kt de est, variant entre est/nord-est et est/sud-est
Température -1°C
Humidité 93%
Pression 1004 hPa
Visibilité 10 km ou plus
Quelques nuages à une hauteur de 4000 ft

METAR: LSMM 121420Z 09003KT 060V120 9999 FEW040 M01/M02 Q1004 RMK BLU+

Heure: 15:37 (14:37 UTC)


TAF: absent

Observations et prévisions météorologiques de plus de 4000 aéroports (messages METAR et TAF).

Les stations disponibles sont représentées par des disques jaunes et rouges sur la carte.

Passer la souris dessus pour voir le nom de la station.

Cliquer dessus pour voir les observations et prévisions météorologiques.

Pour changer de carte: cliquez sur les boutons verts avec une croix noire pour zoomer, sur le bouton vert avec un tiret pour effectuer un zoom arrière, ou sur les flèches vertes pour les cartes adjacentes.


METAR-TAF: